Paradise — 3FOB5 — position and weather

sailwx.info

Track history (hours):
 
Tides and Currents Weather Stations Pressure Air Temp Water Temp Dewpoint Dewpoint Depression Visibility Wind Speed Wind Dir Waves Ship Positions

Paradise

Operator: Carnival Cruise Lines

Last reported at 2017-Nov-21 06:00 UTC. Time now 2017-Nov-21 08:19 UTC.
Position N 26°48' W 083°18'.

Type: Ship. MMSI: 355833000.

Wind from 110 at 38 knots

Barometer 1016.0 mb
Air temperature 22.0 ° C
Visibility: greater than 10.8 NM
Dewpoint 17.5 ° C
Water temperature 23.0 ° C

Date/timePositionNaut miles runAvg speedWind from/ knotsBaromVisibWave heightAir tempDewpointWater temp
2017-Nov-21 06:00N 26°48' W 083°18'26 1.0 110 / 381016.010.8 22.017.523.0
2017-Nov-20 03:00N 27°12' W 083°06'15515.5 010 / 281014.0 5.4 23.020.122.0
2017-Nov-19 17:00N 24°54' W 084°24'2626.4 300 / 111017.010.8 28.023.927.0
2017-Nov-19 16:00N 24°30' W 084°36'17916.3 330 / 101015.010.8 26.021.825.0
2017-Nov-19 05:00N 21°48' W 086°00'8819.3 080 / 111016.010.8 25.020.727.0
2017-Nov-19 00:25N 20°37' W 086°57'717.4
2017-Nov-19 00:00N 20°31' W 087°00'3 5.5
2017-Nov-18 23:30N 20°29' W 086°59'0 0.0
2017-Nov-18 23:00N 20°29' W 086°59'0 0.0
2017-Nov-18 22:30N 20°29' W 086°59'0 0.0
2017-Nov-18 22:00N 20°29' W 086°59'0 0.0
2017-Nov-18 21:23N 20°29' W 086°59'0 0.0
2017-Nov-18 20:59N 20°29' W 086°59'0 0.0
2017-Nov-18 20:29N 20°29' W 086°59'0 0.0
2017-Nov-18 19:59N 20°29' W 086°59'0 0.0
2017-Nov-18 19:29N 20°29' W 086°59'0 0.0
2017-Nov-18 18:58N 20°29' W 086°59'0 0.0
2017-Nov-18 18:28N 20°29' W 086°59'0 0.0
2017-Nov-18 17:58N 20°29' W 086°59'0 0.0
2017-Nov-18 17:28N 20°29' W 086°59'0 0.0
2017-Nov-18 16:57N 20°29' W 086°59'0 0.0
2017-Nov-18 16:30N 20°29' W 086°59'0 0.0
2017-Nov-18 15:57N 20°29' W 086°59'0 0.0
2017-Nov-18 15:30N 20°29' W 086°59'0 0.0
2017-Nov-18 15:00N 20°29' W 086°59'0 0.0
2017-Nov-18 14:26N 20°29' W 086°59'0 0.0
2017-Nov-18 13:59N 20°29' W 086°59'0 0.0
2017-Nov-18 13:26N 20°29' W 086°59'0 0.0
2017-Nov-18 12:59N 20°29' W 086°59'0 0.0
2017-Nov-18 12:30N 20°29' W 086°59'2 3.9
2017-Nov-18 12:00N 20°31' W 086°59'4 8.1
2017-Nov-18 11:30N 20°35' W 086°59'5 9.2
2017-Nov-18 11:00N 20°38' W 086°56'4110.1
2017-Nov-18 07:00N 21°06' W 086°24'26 8.8 060 / 131015.010.8 25.020.727.0
2017-Nov-18 04:00N 21°30' W 086°12'1212.0 050 / 151015.010.8 25.022.224.0
2017-Nov-18 03:00N 21°42' W 086°12'8 8.2 050 / 151015.010.8 25.022.224.0
2017-Nov-18 02:00N 21°48' W 086°06'12112.1 050 / 151015.0 5.4 25.022.224.0
2017-Nov-17 16:00N 23°36' W 085°06'17417.4 030 / 121017.0 5.4 24.018.021.0
2017-Nov-17 06:00N 26°12' W 083°42'10115.8 070 / 181017.010.8 21.018.025.0
2017-Nov-16 23:34N 27°37' W 082°40'615.1
2017-Nov-16 23:10N 27°41' W 082°35'414.6
2017-Nov-16 22:55N 27°44' W 082°32'512.7
2017-Nov-16 22:30N 27°48' W 082°29'612.3
2017-Nov-16 22:00N 27°54' W 082°26'3 5.2
2017-Nov-16 21:31N 27°56' W 082°27'1 0.9
2017-Nov-16 20:58N 27°57' W 082°27'0 0.0
2017-Nov-16 20:30N 27°57' W 082°27'0 0.0
2017-Nov-16 20:00N 27°57' W 082°27'0 0.0
2017-Nov-16 19:30N 27°57' W 082°27'0 0.0
2017-Nov-16 19:00N 27°57' W 082°27'0 0.0
2017-Nov-16 18:29N 27°57' W 082°27'0 0.0
2017-Nov-16 17:59N 27°57' W 082°27'0 0.0
2017-Nov-16 17:29N 27°57' W 082°27'0 0.0
2017-Nov-16 16:59N 27°57' W 082°27'0 0.0
2017-Nov-16 16:29N 27°57' W 082°27'0 0.0
2017-Nov-16 15:58N 27°57' W 082°27'0 0.0
2017-Nov-16 15:28N 27°57' W 082°27'0 0.0
2017-Nov-16 14:58N 27°57' W 082°27'0 0.0
2017-Nov-16 14:28N 27°57' W 082°27'0 0.0
2017-Nov-16 13:58N 27°57' W 082°27'0 0.0
2017-Nov-16 13:30N 27°57' W 082°27'0 0.0
2017-Nov-16 13:00N 27°57' W 082°27'0 0.0
2017-Nov-16 12:30N 27°57' W 082°27'0 0.0
2017-Nov-16 12:00N 27°57' W 082°27'1 1.3
2017-Nov-16 11:30N 27°56' W 082°27'2 4.9
2017-Nov-16 11:00N 27°54' W 082°26'611.5
2017-Nov-16 10:31N 27°48' W 082°28'612.5
2017-Nov-16 10:00N 27°43' W 082°32'913.6
2017-Nov-16 09:23N 27°37' W 082°39'43 9.7
2017-Nov-16 05:00N 27°06' W 083°12'3417.0 050 / 201016.010.8 21.018.026.0
2017-Nov-16 03:00N 26°36' W 083°30'1918.8 040 / 221016.0 5.4 23.020.122.0
2017-Nov-16 02:00N 26°18' W 083°36'12916.1 040 / 221016.0 5.4 23.020.123.0
2017-Nov-15 18:00N 24°24' W 084°42'4013.2 050 / 251014.010.8 25.020.728.0
2017-Nov-15 15:00N 23°48' W 085°00'16916.9 050 / 201014.0 5.4 27.021.325.0
2017-Nov-15 05:00N 21°18' W 086°24'5117.6 050 / 251014.0 5.4 26.023.225.0
2017-Nov-15 02:04N 20°37' W 086°57'118.5
2017-Nov-15 02:00N 20°36' W 086°58'713.8
2017-Nov-15 01:30N 20°29' W 086°59'0 0.4
2017-Nov-15 00:59N 20°29' W 086°59'0 0.0
2017-Nov-15 00:29N 20°29' W 086°59'0 0.0
2017-Nov-14 23:59N 20°29' W 086°59'0 0.0
2017-Nov-14 23:29N 20°29' W 086°59'0 0.0
2017-Nov-14 22:59N 20°29' W 086°59'0 0.0
2017-Nov-14 22:28N 20°29' W 086°59'0 0.0
2017-Nov-14 21:58N 20°29' W 086°59'0 0.0
2017-Nov-14 21:28N 20°29' W 086°59'0 0.0
2017-Nov-14 20:58N 20°29' W 086°59'0 0.0
2017-Nov-14 20:31N 20°29' W 086°59'0 0.0
2017-Nov-14 20:00N 20°29' W 086°59'0 0.0
2017-Nov-14 19:27N 20°29' W 086°59'0 0.0
2017-Nov-14 19:00N 20°29' W 086°59'0 0.0
2017-Nov-14 18:30N 20°29' W 086°59'0 0.0
2017-Nov-14 17:56N 20°29' W 086°59'0 0.0
2017-Nov-14 17:29N 20°29' W 086°59'0 0.0
2017-Nov-14 16:59N 20°29' W 086°59'0 0.0
2017-Nov-14 16:29N 20°29' W 086°59'0 0.0
2017-Nov-14 15:59N 20°29' W 086°59'0 0.4
2017-Nov-14 15:30N 20°29' W 086°59'2 4.9
2017-Nov-14 15:00N 20°29' W 087°01'13819.7
2017-Nov-14 08:00N 18°12' W 086°48'121 7.1 020 / 301010.010.8 25.020.727.0
2017-Nov-13 15:00N 16°12' W 086°36'14816.4 340 / 151013.0 5.4 25.023.625.0
2017-Nov-13 06:00N 18°36' W 086°00'6120.4 050 / 71012.010.8 26.021.828.0
2017-Nov-13 03:00N 19°36' W 085°48'11218.6 050 / 201013.0 5.4 25.022.225.0
2017-Nov-12 21:00N 21°24' W 085°18'11318.8 060 / 231012.010.8 27.025.728.0
2017-Nov-12 15:00N 23°12' W 084°42'19719.7 040 / 301017.0 5.4 27.022.827.0
2017-Nov-12 05:00N 26°18' W 083°30'9117.7 060 / 301018.0 5.4 24.021.124.0
2017-Nov-11 23:51N 27°37' W 082°39'614.7
2017-Nov-11 23:28N 27°41' W 082°35'613.3
2017-Nov-11 23:00N 27°46' W 082°31'612.0
2017-Nov-11 22:30N 27°51' W 082°27'5 9.7
2017-Nov-11 22:00N 27°55' W 082°27'1 2.4
2017-Nov-11 21:28N 27°57' W 082°27'0 0.0
2017-Nov-11 20:58N 27°57' W 082°27'0 0.0
2017-Nov-11 20:30N 27°57' W 082°27'0 0.0
2017-Nov-11 20:00N 27°57' W 082°27'0 0.0
2017-Nov-11 19:30N 27°57' W 082°27'0 0.0
2017-Nov-11 19:00N 27°57' W 082°27'0 0.0
2017-Nov-11 18:30N 27°57' W 082°27'0 0.0
2017-Nov-11 17:59N 27°57' W 082°27'0 0.0
2017-Nov-11 17:29N 27°57' W 082°27'0 0.0
2017-Nov-11 16:56N 27°57' W 082°27'0 0.0
2017-Nov-11 16:23N 27°57' W 082°27'0 0.0
2017-Nov-11 15:59N 27°57' W 082°27'0 0.0
2017-Nov-11 15:28N 27°57' W 082°27'0 0.0
2017-Nov-11 14:58N 27°57' W 082°27'0 0.0
2017-Nov-11 14:28N 27°57' W 082°27'0 0.0
2017-Nov-11 13:58N 27°57' W 082°27'0 0.0
2017-Nov-11 13:30N 27°57' W 082°27'0 0.0
2017-Nov-11 13:00N 27°57' W 082°27'0 0.0
2017-Nov-11 12:30N 27°57' W 082°27'0 0.0
2017-Nov-11 11:57N 27°57' W 082°27'0 0.0
2017-Nov-11 11:30N 27°57' W 082°27'0 0.0
2017-Nov-11 10:59N 27°57' W 082°27'0 0.0
2017-Nov-11 10:29N 27°57' W 082°27'0 0.0
2017-Nov-11 09:59N 27°57' W 082°27'0 0.0
2017-Nov-11 09:29N 27°57' W 082°27'0 0.0
2017-Nov-11 08:58N 27°57' W 082°27'0 0.4
2017-Nov-11 08:30N 27°57' W 082°27'2 3.7
2017-Nov-11 08:00N 27°55' W 082°26'510.6
2017-Nov-11 07:30N 27°49' W 082°27'713.0
2017-Nov-11 07:00N 27°44' W 082°32'  
Track history (hours):
 
Tides and Currents Weather Stations Pressure Air Temp Water Temp Dewpoint Dewpoint Depression Visibility Wind Speed Wind Dir Waves Ship Positions

Paradise

Operator: Carnival Cruise Lines

Last reported at 2017-Nov-21 06:00 UTC. Time now 2017-Nov-21 08:19 UTC.
Position N 26°48' W 083°18'.

Type: Ship. MMSI: 355833000.

Wind from 110 at 38 knots

Barometer 1016.0 mb
Air temperature 22.0 ° C
Visibility: greater than 10.8 NM
Dewpoint 17.5 ° C
Water temperature 23.0 ° C

Date/timePositionNaut miles runAvg speedWind from/ knotsBaromVisibWave heightAir tempDewpointWater temp
2017-Nov-21 06:00N 26°48' W 083°18'26 1.0 110 / 381016.010.8 22.017.523.0
2017-Nov-20 03:00N 27°12' W 083°06'15515.5 010 / 281014.0 5.4 23.020.122.0
2017-Nov-19 17:00N 24°54' W 084°24'2626.4 300 / 111017.010.8 28.023.927.0
2017-Nov-19 16:00N 24°30' W 084°36'17916.3 330 / 101015.010.8 26.021.825.0
2017-Nov-19 05:00N 21°48' W 086°00'8819.3 080 / 111016.010.8 25.020.727.0
2017-Nov-19 00:25N 20°37' W 086°57'717.4
2017-Nov-19 00:00N 20°31' W 087°00'3 5.5
2017-Nov-18 23:30N 20°29' W 086°59'0 0.0
2017-Nov-18 23:00N 20°29' W 086°59'0 0.0
2017-Nov-18 22:30N 20°29' W 086°59'0 0.0
2017-Nov-18 22:00N 20°29' W 086°59'0 0.0
2017-Nov-18 21:23N 20°29' W 086°59'0 0.0
2017-Nov-18 20:59N 20°29' W 086°59'0 0.0
2017-Nov-18 20:29N 20°29' W 086°59'0 0.0
2017-Nov-18 19:59N 20°29' W 086°59'0 0.0
2017-Nov-18 19:29N 20°29' W 086°59'0 0.0
2017-Nov-18 18:58N 20°29' W 086°59'0 0.0
2017-Nov-18 18:28N 20°29' W 086°59'0 0.0
2017-Nov-18 17:58N 20°29' W 086°59'0 0.0
2017-Nov-18 17:28N 20°29' W 086°59'0 0.0
2017-Nov-18 16:57N 20°29' W 086°59'0 0.0
2017-Nov-18 16:30N 20°29' W 086°59'0 0.0
2017-Nov-18 15:57N 20°29' W 086°59'0 0.0
2017-Nov-18 15:30N 20°29' W 086°59'0 0.0
2017-Nov-18 15:00N 20°29' W 086°59'0 0.0
2017-Nov-18 14:26N 20°29' W 086°59'0 0.0
2017-Nov-18 13:59N 20°29' W 086°59'0 0.0
2017-Nov-18 13:26N 20°29' W 086°59'0 0.0
2017-Nov-18 12:59N 20°29' W 086°59'0 0.0
2017-Nov-18 12:30N 20°29' W 086°59'2 3.9
2017-Nov-18 12:00N 20°31' W 086°59'4 8.1
2017-Nov-18 11:30N 20°35' W 086°59'5 9.2
2017-Nov-18 11:00N 20°38' W 086°56'4110.1
2017-Nov-18 07:00N 21°06' W 086°24'26 8.8 060 / 131015.010.8 25.020.727.0
2017-Nov-18 04:00N 21°30' W 086°12'1212.0 050 / 151015.010.8 25.022.224.0
2017-Nov-18 03:00N 21°42' W 086°12'8 8.2 050 / 151015.010.8 25.022.224.0
2017-Nov-18 02:00N 21°48' W 086°06'12112.1 050 / 151015.0 5.4 25.022.224.0
2017-Nov-17 16:00N 23°36' W 085°06'17417.4 030 / 121017.0 5.4 24.018.021.0
2017-Nov-17 06:00N 26°12' W 083°42'10115.8 070 / 181017.010.8 21.018.025.0
2017-Nov-16 23:34N 27°37' W 082°40'615.1
2017-Nov-16 23:10N 27°41' W 082°35'414.6
2017-Nov-16 22:55N 27°44' W 082°32'512.7
2017-Nov-16 22:30N 27°48' W 082°29'612.3
2017-Nov-16 22:00N 27°54' W 082°26'3 5.2
2017-Nov-16 21:31N 27°56' W 082°27'1 0.9
2017-Nov-16 20:58N 27°57' W 082°27'0 0.0
2017-Nov-16 20:30N 27°57' W 082°27'0 0.0
2017-Nov-16 20:00N 27°57' W 082°27'0 0.0
2017-Nov-16 19:30N 27°57' W 082°27'0 0.0
2017-Nov-16 19:00N 27°57' W 082°27'0 0.0
2017-Nov-16 18:29N 27°57' W 082°27'0 0.0
2017-Nov-16 17:59N 27°57' W 082°27'0 0.0
2017-Nov-16 17:29N 27°57' W 082°27'0 0.0
2017-Nov-16 16:59N 27°57' W 082°27'0 0.0
2017-Nov-16 16:29N 27°57' W 082°27'0 0.0
2017-Nov-16 15:58N 27°57' W 082°27'0 0.0
2017-Nov-16 15:28N 27°57' W 082°27'0 0.0
2017-Nov-16 14:58N 27°57' W 082°27'0 0.0
2017-Nov-16 14:28N 27°57' W 082°27'0 0.0
2017-Nov-16 13:58N 27°57' W 082°27'0 0.0
2017-Nov-16 13:30N 27°57' W 082°27'0 0.0
2017-Nov-16 13:00N 27°57' W 082°27'0 0.0
2017-Nov-16 12:30N 27°57' W 082°27'0 0.0
2017-Nov-16 12:00N 27°57' W 082°27'1 1.3
2017-Nov-16 11:30N 27°56' W 082°27'2 4.9
2017-Nov-16 11:00N 27°54' W 082°26'611.5
2017-Nov-16 10:31N 27°48' W 082°28'612.5
2017-Nov-16 10:00N 27°43' W 082°32'913.6
2017-Nov-16 09:23N 27°37' W 082°39'43 9.7
2017-Nov-16 05:00N 27°06' W 083°12'3417.0 050 / 201016.010.8 21.018.026.0
2017-Nov-16 03:00N 26°36' W 083°30'1918.8 040 / 221016.0 5.4 23.020.122.0
2017-Nov-16 02:00N 26°18' W 083°36'12916.1 040 / 221016.0 5.4 23.020.123.0
2017-Nov-15 18:00N 24°24' W 084°42'4013.2 050 / 251014.010.8 25.020.728.0
2017-Nov-15 15:00N 23°48' W 085°00'16916.9 050 / 201014.0 5.4 27.021.325.0
2017-Nov-15 05:00N 21°18' W 086°24'5117.6 050 / 251014.0 5.4 26.023.225.0
2017-Nov-15 02:04N 20°37' W 086°57'118.5
2017-Nov-15 02:00N 20°36' W 086°58'713.8
2017-Nov-15 01:30N 20°29' W 086°59'0 0.4
2017-Nov-15 00:59N 20°29' W 086°59'0 0.0
2017-Nov-15 00:29N 20°29' W 086°59'0 0.0
2017-Nov-14 23:59N 20°29' W 086°59'0 0.0
2017-Nov-14 23:29N 20°29' W 086°59'0 0.0
2017-Nov-14 22:59N 20°29' W 086°59'0 0.0
2017-Nov-14 22:28N 20°29' W 086°59'0 0.0
2017-Nov-14 21:58N 20°29' W 086°59'0 0.0
2017-Nov-14 21:28N 20°29' W 086°59'0 0.0
2017-Nov-14 20:58N 20°29' W 086°59'0 0.0
2017-Nov-14 20:31N 20°29' W 086°59'0 0.0
2017-Nov-14 20:00N 20°29' W 086°59'0 0.0
2017-Nov-14 19:27N 20°29' W 086°59'0 0.0
2017-Nov-14 19:00N 20°29' W 086°59'0 0.0
2017-Nov-14 18:30N 20°29' W 086°59'0 0.0
2017-Nov-14 17:56N 20°29' W 086°59'0 0.0
2017-Nov-14 17:29N 20°29' W 086°59'0 0.0
2017-Nov-14 16:59N 20°29' W 086°59'0 0.0
2017-Nov-14 16:29N 20°29' W 086°59'0 0.0
2017-Nov-14 15:59N 20°29' W 086°59'0 0.4
2017-Nov-14 15:30N 20°29' W 086°59'2 4.9
2017-Nov-14 15:00N 20°29' W 087°01'13819.7
2017-Nov-14 08:00N 18°12' W 086°48'121 7.1 020 / 301010.010.8 25.020.727.0
2017-Nov-13 15:00N 16°12' W 086°36'14816.4 340 / 151013.0 5.4 25.023.625.0
2017-Nov-13 06:00N 18°36' W 086°00'6120.4 050 / 71012.010.8 26.021.828.0
2017-Nov-13 03:00N 19°36' W 085°48'11218.6 050 / 201013.0 5.4 25.022.225.0
2017-Nov-12 21:00N 21°24' W 085°18'11318.8 060 / 231012.010.8 27.025.728.0
2017-Nov-12 15:00N 23°12' W 084°42'19719.7 040 / 301017.0 5.4 27.022.827.0
2017-Nov-12 05:00N 26°18' W 083°30'9117.7 060 / 301018.0 5.4 24.021.124.0
2017-Nov-11 23:51N 27°37' W 082°39'614.7
2017-Nov-11 23:28N 27°41' W 082°35'613.3
2017-Nov-11 23:00N 27°46' W 082°31'612.0
2017-Nov-11 22:30N 27°51' W 082°27'5 9.7
2017-Nov-11 22:00N 27°55' W 082°27'1 2.4
2017-Nov-11 21:28N 27°57' W 082°27'0 0.0
2017-Nov-11 20:58N 27°57' W 082°27'0 0.0
2017-Nov-11 20:30N 27°57' W 082°27'0 0.0
2017-Nov-11 20:00N 27°57' W 082°27'0 0.0
2017-Nov-11 19:30N 27°57' W 082°27'0 0.0
2017-Nov-11 19:00N 27°57' W 082°27'0 0.0
2017-Nov-11 18:30N 27°57' W 082°27'0 0.0
2017-Nov-11 17:59N 27°57' W 082°27'0 0.0
2017-Nov-11 17:29N 27°57' W 082°27'0 0.0
2017-Nov-11 16:56N 27°57' W 082°27'0 0.0
2017-Nov-11 16:23N 27°57' W 082°27'0 0.0
2017-Nov-11 15:59N 27°57' W 082°27'0 0.0
2017-Nov-11 15:28N 27°57' W 082°27'0 0.0
2017-Nov-11 14:58N 27°57' W 082°27'0 0.0
2017-Nov-11 14:28N 27°57' W 082°27'0 0.0
2017-Nov-11 13:58N 27°57' W 082°27'0 0.0
2017-Nov-11 13:30N 27°57' W 082°27'0 0.0
2017-Nov-11 13:00N 27°57' W 082°27'0 0.0
2017-Nov-11 12:30N 27°57' W 082°27'0 0.0
2017-Nov-11 11:57N 27°57' W 082°27'0 0.0
2017-Nov-11 11:30N 27°57' W 082°27'0 0.0
2017-Nov-11 10:59N 27°57' W 082°27'0 0.0
2017-Nov-11 10:29N 27°57' W 082°27'0 0.0
2017-Nov-11 09:59N 27°57' W 082°27'0 0.0
2017-Nov-11 09:29N 27°57' W 082°27'0 0.0
2017-Nov-11 08:58N 27°57' W 082°27'0 0.4
2017-Nov-11 08:30N 27°57' W 082°27'2 3.7
2017-Nov-11 08:00N 27°55' W 082°26'510.6
2017-Nov-11 07:30N 27°49' W 082°27'713.0
2017-Nov-11 07:00N 27°44' W 082°32'  

Dump ship's entire track history